createdAt,value
2023-10-23T00:00:58.033Z,11.53
2023-10-23T00:06:15.240Z,11.50
2023-10-23T00:11:29.142Z,11.50
2023-10-23T00:16:33.171Z,11.49
2023-10-23T00:21:36.159Z,11.51
2023-10-23T00:26:40.241Z,11.50
2023-10-23T00:31:43.294Z,11.49
2023-10-23T00:36:46.250Z,11.47
2023-10-23T00:41:49.135Z,11.45
2023-10-23T00:46:52.041Z,11.43
2023-10-23T00:51:55.852Z,11.42
2023-10-23T00:56:58.988Z,11.42
2023-10-23T01:02:02.670Z,11.41
2023-10-23T01:07:05.670Z,11.39
2023-10-23T01:12:08.662Z,11.39
2023-10-23T01:17:11.589Z,11.41
2023-10-23T01:22:14.576Z,11.42
2023-10-23T01:27:18.231Z,11.43
2023-10-23T01:32:21.125Z,11.46
2023-10-23T01:37:24.474Z,11.50
2023-10-23T01:42:30.092Z,11.53
2023-10-23T01:47:33.109Z,11.56
2023-10-23T01:52:36.408Z,11.58
2023-10-23T01:57:39.743Z,11.55
2023-10-23T02:02:42.867Z,11.50
2023-10-23T02:07:45.999Z,11.47
2023-10-23T02:12:49.039Z,11.46
2023-10-23T02:17:54.609Z,11.43
2023-10-23T02:22:57.759Z,11.38
2023-10-23T02:28:00.793Z,11.26
2023-10-23T02:33:03.834Z,11.11
2023-10-23T02:38:06.936Z,11.00
2023-10-23T02:43:09.819Z,10.95
2023-10-23T02:48:14.000Z,10.95
2023-10-23T02:53:16.860Z,10.91
2023-10-23T02:58:20.048Z,10.90
2023-10-23T03:03:23.038Z,10.88
2023-10-23T03:08:26.686Z,10.86
2023-10-23T03:13:29.604Z,10.87
2023-10-23T03:18:32.540Z,10.87
2023-10-23T03:23:36.980Z,10.83
2023-10-23T03:28:40.151Z,10.79
2023-10-23T03:33:43.763Z,10.78
2023-10-23T03:38:46.746Z,10.77
2023-10-23T03:43:49.577Z,10.80
2023-10-23T03:48:53.578Z,10.78
2023-10-23T03:53:56.686Z,10.73
2023-10-23T03:59:01.109Z,10.75
2023-10-23T04:04:04.536Z,10.76
2023-10-23T04:09:08.239Z,10.75
2023-10-23T04:14:11.219Z,10.80
2023-10-23T04:19:14.206Z,10.80
2023-10-23T04:24:17.173Z,10.82
2023-10-23T04:29:20.130Z,10.80
2023-10-23T04:34:22.976Z,10.83
2023-10-23T04:39:25.885Z,10.86
2023-10-23T04:44:28.817Z,10.86
2023-10-23T04:49:31.763Z,10.89
2023-10-23T04:54:35.716Z,10.91
2023-10-23T04:59:38.966Z,10.89
2023-10-23T05:04:42.291Z,10.89
2023-10-23T05:09:45.422Z,10.88
2023-10-23T05:14:48.416Z,10.89
2023-10-23T05:19:51.340Z,10.94
2023-10-23T05:24:54.268Z,10.95
2023-10-23T05:29:57.169Z,10.92
2023-10-23T05:35:00.341Z,10.96
2023-10-23T05:40:06.030Z,10.96
2023-10-23T05:45:10.605Z,10.99
2023-10-23T05:50:13.661Z,11.02
2023-10-23T05:55:16.819Z,11.05
2023-10-23T06:00:19.911Z,11.08
2023-10-23T06:05:22.793Z,11.13
2023-10-23T06:10:25.750Z,11.18
2023-10-23T06:15:28.742Z,11.18
2023-10-23T06:20:33.313Z,11.23
2023-10-23T06:25:36.327Z,11.29
2023-10-23T06:30:39.268Z,11.31
2023-10-23T06:35:42.195Z,11.33
2023-10-23T06:40:45.196Z,11.34
2023-10-23T06:51:00.718Z,11.51
2023-10-23T06:56:03.913Z,11.64
2023-10-23T07:01:09.088Z,11.59
2023-10-23T07:06:13.005Z,11.59
2023-10-23T07:11:17.408Z,11.57
2023-10-23T07:16:21.276Z,11.63
2023-10-23T07:21:27.417Z,11.65
2023-10-23T07:26:30.598Z,11.72
2023-10-23T07:31:33.574Z,11.78
2023-10-23T07:36:38.721Z,11.88
2023-10-23T07:41:41.696Z,11.93
2023-10-23T07:46:45.416Z,11.98
2023-10-23T07:51:48.699Z,11.96
2023-10-23T07:56:51.649Z,12.03
2023-10-23T08:01:54.756Z,12.15
2023-10-23T08:06:57.989Z,12.14
2023-10-23T08:12:01.109Z,12.16
2023-10-23T08:17:04.949Z,12.19
2023-10-23T08:22:08.125Z,12.18
2023-10-23T08:27:11.118Z,12.11
2023-10-23T08:32:17.185Z,12.19
2023-10-23T08:37:21.576Z,12.29
2023-10-23T08:42:25.045Z,12.42
2023-10-23T08:47:27.932Z,12.49
2023-10-23T08:52:36.245Z,12.56
2023-10-23T08:57:39.034Z,12.64
2023-10-23T09:02:51.692Z,12.62
2023-10-23T09:07:55.728Z,12.88
2023-10-23T09:12:58.667Z,12.97
2023-10-23T09:18:03.628Z,13.03
2023-10-23T09:23:06.828Z,13.02
2023-10-23T09:28:13.833Z,13.05
2023-10-23T09:33:17.656Z,13.17
2023-10-23T09:38:22.126Z,13.36
2023-10-23T09:43:27.506Z,13.56
2023-10-23T09:48:31.618Z,13.69
2023-10-23T09:53:34.473Z,13.76
2023-10-23T09:58:37.323Z,13.62
2023-10-23T10:03:41.293Z,13.54
2023-10-23T10:08:49.793Z,13.41
2023-10-23T10:13:52.818Z,13.26
2023-10-23T10:18:55.680Z,13.13
2023-10-23T10:24:00.309Z,13.03
2023-10-23T10:29:04.334Z,12.99
2023-10-23T10:34:26.934Z,12.93
2023-10-23T10:39:53.629Z,12.99
2023-10-23T10:45:01.594Z,12.98
2023-10-23T10:50:05.483Z,12.93
2023-10-23T10:55:13.426Z,12.89
2023-10-23T11:00:17.160Z,12.89
2023-10-23T11:05:20.244Z,12.89
2023-10-23T11:10:23.342Z,12.96
2023-10-23T11:15:27.208Z,13.04
2023-10-23T11:20:32.595Z,13.14
2023-10-23T11:25:37.432Z,13.23
2023-10-23T11:30:48.670Z,13.25
2023-10-23T11:35:53.645Z,13.35
2023-10-23T11:40:57.799Z,13.39
2023-10-23T11:46:00.968Z,13.38
2023-10-23T11:51:05.779Z,13.44
2023-10-23T11:56:09.153Z,13.56
2023-10-23T12:01:12.209Z,13.64
2023-10-23T12:06:15.276Z,13.69
2023-10-23T12:11:18.918Z,13.74
2023-10-23T12:16:21.987Z,13.76
2023-10-23T12:21:26.543Z,13.79
2023-10-23T12:26:29.988Z,13.82
2023-10-23T12:31:33.199Z,13.84
2023-10-23T12:36:55.903Z,13.96
2023-10-23T12:41:58.955Z,14.15
2023-10-23T12:47:01.992Z,14.29
2023-10-23T12:52:06.033Z,14.43
2023-10-23T12:57:09.184Z,14.60
2023-10-23T13:02:12.226Z,14.82
2023-10-23T13:07:15.295Z,15.02
2023-10-23T13:12:18.490Z,14.99
2023-10-23T13:17:21.444Z,14.99
2023-10-23T13:22:24.938Z,14.94
2023-10-23T13:27:27.880Z,14.91
2023-10-23T13:32:30.871Z,14.85
2023-10-23T13:37:34.163Z,14.79
2023-10-23T13:42:37.047Z,14.76
2023-10-23T13:47:40.092Z,14.77
2023-10-23T13:52:43.144Z,14.67
2023-10-23T13:57:46.171Z,14.47
2023-10-23T14:02:49.282Z,14.24
2023-10-23T14:07:52.999Z,14.05
2023-10-23T14:12:56.081Z,14.09
2023-10-23T14:17:59.093Z,13.99
2023-10-23T14:23:02.031Z,13.92
2023-10-23T14:28:05.691Z,13.94
2023-10-23T14:33:08.889Z,13.91
2023-10-23T14:38:12.745Z,13.91
2023-10-23T14:43:15.737Z,13.88
2023-10-23T14:48:20.723Z,13.78
2023-10-23T14:53:27.470Z,13.70
2023-10-23T14:58:30.938Z,13.58
2023-10-23T15:03:42.601Z,13.37
2023-10-23T15:08:46.656Z,13.18
2023-10-23T15:13:50.590Z,12.95
2023-10-23T15:18:54.297Z,12.68
2023-10-23T15:23:58.144Z,12.42
2023-10-23T15:29:01.131Z,12.16
2023-10-23T15:34:04.584Z,11.91
2023-10-23T15:39:09.734Z,11.69
2023-10-23T15:44:13.969Z,11.46
2023-10-23T15:49:17.225Z,11.24
2023-10-23T15:54:20.326Z,11.06
2023-10-23T15:59:23.214Z,10.87
2023-10-23T16:04:26.188Z,10.71
2023-10-23T16:09:29.216Z,10.54
2023-10-23T16:14:36.787Z,10.38
2023-10-23T16:19:49.306Z,10.23
2023-10-23T16:24:52.274Z,10.15
2023-10-23T16:29:55.428Z,10.01
2023-10-23T16:34:59.037Z,9.91
2023-10-23T16:40:01.963Z,9.83
2023-10-23T16:45:06.277Z,9.75
2023-10-23T16:50:10.234Z,9.65
2023-10-23T16:55:13.290Z,9.57
2023-10-23T17:00:16.525Z,9.48
2023-10-23T17:05:19.436Z,9.41
2023-10-23T17:10:22.489Z,9.36
2023-10-23T17:15:25.430Z,9.30
2023-10-23T17:20:28.360Z,9.26
2023-10-23T17:25:31.238Z,9.23
2023-10-23T17:30:34.249Z,9.21
2023-10-23T17:35:39.338Z,9.20
2023-10-23T17:40:42.297Z,9.23
2023-10-23T17:45:45.231Z,9.26
2023-10-23T17:50:48.046Z,9.32
2023-10-23T17:55:50.953Z,9.36
2023-10-23T18:00:53.892Z,9.37
2023-10-23T18:06:00.397Z,9.33
2023-10-23T18:11:11.410Z,9.26
2023-10-23T18:16:15.143Z,9.20
2023-10-23T18:21:19.533Z,9.21
2023-10-23T18:26:22.942Z,9.28
2023-10-23T18:31:26.697Z,9.35
2023-10-23T18:36:32.850Z,9.41
2023-10-23T18:41:35.781Z,9.41
2023-10-23T18:46:39.194Z,9.39
2023-10-23T18:51:42.329Z,9.35
2023-10-23T18:56:46.633Z,9.32
2023-10-23T19:01:50.520Z,9.24
2023-10-23T19:06:53.472Z,9.16
2023-10-23T19:11:57.200Z,9.05
2023-10-23T19:17:04.707Z,8.99
2023-10-23T19:22:08.242Z,8.96
2023-10-23T19:27:12.283Z,8.92
2023-10-23T19:32:16.053Z,8.86
2023-10-23T19:37:19.776Z,8.81
2023-10-23T19:42:24.986Z,8.75
2023-10-23T19:47:28.457Z,8.68
2023-10-23T19:52:37.291Z,8.60
2023-10-23T19:57:40.455Z,8.52
2023-10-23T20:02:43.658Z,8.45
2023-10-23T20:07:46.602Z,8.37
2023-10-23T20:12:51.205Z,8.30
2023-10-23T20:17:56.095Z,8.25
2023-10-23T20:22:59.100Z,8.20
2023-10-23T20:28:03.955Z,8.14
2023-10-23T20:33:08.638Z,8.12
2023-10-23T20:38:11.668Z,8.10
2023-10-23T20:43:14.612Z,8.08
2023-10-23T20:48:17.556Z,8.06
2023-10-23T20:53:20.406Z,8.03
2023-10-23T20:58:24.265Z,7.99
2023-10-23T21:03:27.236Z,7.92
2023-10-23T21:08:30.322Z,7.87
2023-10-23T21:13:33.297Z,7.82
2023-10-23T21:18:36.368Z,7.79
2023-10-23T21:23:39.403Z,7.74
2023-10-23T21:28:47.645Z,7.69
2023-10-23T21:33:50.735Z,7.64
2023-10-23T21:38:53.578Z,7.59
2023-10-23T21:43:56.482Z,7.54
2023-10-23T21:49:03.744Z,7.53
2023-10-23T21:54:07.450Z,7.52
2023-10-23T21:59:13.490Z,7.51
2023-10-23T22:04:16.960Z,7.51
2023-10-23T22:09:20.287Z,7.49
2023-10-23T22:14:23.621Z,7.49
2023-10-23T22:19:26.651Z,7.51
2023-10-23T22:24:29.702Z,7.50
2023-10-23T22:29:32.785Z,7.45
2023-10-23T22:34:35.879Z,7.43
2023-10-23T22:39:38.988Z,7.44
2023-10-23T22:44:42.099Z,7.45
2023-10-23T22:49:45.810Z,7.42
2023-10-23T22:54:48.995Z,7.42
2023-10-23T22:59:52.788Z,7.39
2023-10-23T23:04:55.984Z,7.42
2023-10-23T23:09:59.229Z,7.42
2023-10-23T23:15:02.892Z,7.44
2023-10-23T23:20:08.464Z,7.45
2023-10-23T23:25:11.355Z,7.49
2023-10-23T23:30:14.720Z,7.52
2023-10-23T23:35:17.651Z,7.57
2023-10-23T23:40:20.665Z,7.62
2023-10-23T23:45:23.576Z,7.65
2023-10-23T23:50:26.547Z,7.70
2023-10-23T23:55:29.641Z,7.72
